East Marion, NY

11:59 PM EDT on June 01, 2015 (GMT -0400)
Summit Estates | | Change Station
CLOSE
Current Station
Personal Weather Station
Location: East Marion, NY
Elevation: 35 ft
Nearby Weather Stations

Elev 35 ft 41.12 °N, 72.35 °W | Updated 37 seconds ago

Rain
Rain
49.8 °F
Feels Like 50 °F
N
0.0
Wind Variable Wind from SW
Gusts 0.0 mph

Today
High -- | Low -- °F
--% Chance of Precip.
Yesterday
High -- | Low -- °F
Precip. -- in
5:19 AM 8:15 PM
Full, 100% visible
Pressure 30.18 in
Visibility 4.0 miles
Clouds Mostly Cloudy 600 ft
Overcast 1000 ft
Windchill 50 °F
Dew Point 48 °F
Humidity 95%
Rainfall 0.00 in
Snow Depth Not available.
UV 0 out of 12
Pollen .90 out of 12
Air Quality Not available.
Flu Activity Sporadic
METAR KSNC 020335Z AUTO 05007KT 4SM RA BKN006 OVC010 08/08 A3018 RMK AO2

More Conditions Fewer Conditions

Pressure 30.18 in
Visibility 4.0 miles
Clouds Mostly Cloudy 600 ft
Overcast 1000 ft
Windchill 50 °F
Dew Point 48 °F
Humidity 95%
Rainfall 0.00 in
Snow Depth Not available.
UV 0 out of 12
Pollen .90 out of 12
Air Quality Not available.
Flu Activity Sporadic
METAR KSNC 020335Z AUTO 05007KT 4SM RA BKN006 OVC010 08/08 A3018 RMK AO2

More Conditions Fewer Conditions

10-Day Weather Forecast

Almanac

Astronomy

Jun. 01, 2015 Rise Set
Actual Time
Civil Twilight
Nautical Twilight
Astronomical Twilight
Moon
Length of Visible Light
Length of Day
Tomorrow will be .
, % of the Moon is Illuminated

Today's Extremes

State Highs State Lows

Community

WunderPhotos

Upload Photos

1,825,883 photos uploaded!

WunderBlogs® & News

Nearby

Air Quality

  Air Quality AQ Index Pollutant
Not available.

Snow Depth

Station Depth Elevation

Earthquake Activity

City Distance Mag. Time & Date
Minimum magnitude displayed is 2.5.

Coastal Water Temperatures

Place Temperature

Stations

Nearby Weather Stations

Station Location Temp. Windchill Dew Point Humidity Wind Precip. Elev Updated Type